createdAt,value
2023-01-13T00:01:44.734Z,44.80
2023-01-13T00:04:13.529Z,43.70
2023-01-13T00:06:43.147Z,46.00
2023-01-13T00:09:12.121Z,41.00
2023-01-13T00:11:41.173Z,42.70
2023-01-13T00:14:09.796Z,41.90
2023-01-13T00:16:39.111Z,42.10
2023-01-13T00:19:08.002Z,39.90
2023-01-13T00:21:37.606Z,44.40
2023-01-13T00:24:07.354Z,47.00
2023-01-13T00:26:36.519Z,55.30
2023-01-13T00:29:05.922Z,67.30
2023-01-13T00:31:34.742Z,76.90
2023-01-13T00:34:03.795Z,62.80
2023-01-13T00:36:33.612Z,52.50
2023-01-13T00:41:53.913Z,53.80
2023-01-13T00:44:23.411Z,59.20
2023-01-13T00:46:53.383Z,58.70
2023-01-13T00:49:23.356Z,53.10
2023-01-13T00:51:52.359Z,53.40
2023-01-13T00:54:22.174Z,60.20
2023-01-13T00:56:52.184Z,52.40
2023-01-13T00:59:22.504Z,55.00
2023-01-13T01:04:21.828Z,57.40
2023-01-13T01:06:51.114Z,44.80
2023-01-13T01:09:20.510Z,53.70
2023-01-13T01:11:50.820Z,47.20
2023-01-13T01:14:20.746Z,50.70
2023-01-13T01:16:49.880Z,48.90
2023-01-13T01:19:20.899Z,44.80
2023-01-13T01:21:51.336Z,40.30
2023-01-13T01:24:21.138Z,42.20
2023-01-13T01:26:50.333Z,37.80
2023-01-13T01:29:19.886Z,42.20
2023-01-13T01:31:50.437Z,40.40
2023-01-13T01:34:20.713Z,37.10
2023-01-13T01:36:50.306Z,36.70
2023-01-13T01:39:19.683Z,35.00
2023-01-13T01:42:08.459Z,33.50
2023-01-13T01:44:44.092Z,34.50
2023-01-13T01:47:18.937Z,31.90
2023-01-13T01:49:49.597Z,35.90
2023-01-13T01:52:27.648Z,32.00
2023-01-13T01:55:11.515Z,29.30
2023-01-13T01:57:51.738Z,28.60
2023-01-13T02:00:23.714Z,28.80
2023-01-13T02:02:54.001Z,29.80
2023-01-13T02:05:25.166Z,30.30
2023-01-13T02:07:58.100Z,34.10
2023-01-13T02:10:31.101Z,30.20
2023-01-13T02:13:04.480Z,30.30
2023-01-13T02:15:44.936Z,34.00
2023-01-13T02:18:17.612Z,30.40
2023-01-13T02:20:53.791Z,27.70
2023-01-13T02:24:15.892Z,27.50
2023-01-13T02:27:00.352Z,33.10
2023-01-13T02:30:08.377Z,38.80
2023-01-13T02:33:08.193Z,93.60
2023-01-13T02:38:14.301Z,36.40
2023-01-13T02:40:57.679Z,160.10
2023-01-13T02:43:56.061Z,55.40
2023-01-13T02:46:33.868Z,32.40
2023-01-13T02:49:08.438Z,30.20
2023-01-13T02:51:41.906Z,34.60
2023-01-13T02:54:19.177Z,33.40
2023-01-13T02:56:54.709Z,37.30
2023-01-13T02:59:27.305Z,36.40
2023-01-13T03:01:58.423Z,45.10
2023-01-13T03:04:51.340Z,38.00
2023-01-13T03:07:48.026Z,35.20
2023-01-13T03:10:18.076Z,32.90
2023-01-13T03:12:48.602Z,38.30
2023-01-13T03:15:45.333Z,59.80
2023-01-13T03:18:26.938Z,40.40
2023-01-13T03:21:14.327Z,29.10
2023-01-13T03:23:47.677Z,33.70
2023-01-13T03:26:38.331Z,29.70
2023-01-13T03:29:29.036Z,40.90
2023-01-13T03:32:07.643Z,40.40
2023-01-13T03:34:51.179Z,39.10
2023-01-13T03:37:26.149Z,38.70
2023-01-13T03:40:03.519Z,31.90
2023-01-13T03:42:37.375Z,31.00
2023-01-13T03:45:18.847Z,31.50
2023-01-13T03:47:58.429Z,29.20
2023-01-13T03:50:43.074Z,31.90
2023-01-13T03:53:18.548Z,32.90
2023-01-13T03:56:02.783Z,30.40
2023-01-13T03:58:41.916Z,31.50
2023-01-13T04:01:17.504Z,33.60
2023-01-13T04:04:03.895Z,42.50
2023-01-13T04:06:42.494Z,33.80
2023-01-13T04:09:31.657Z,38.30
2023-01-13T04:12:25.731Z,34.20
2023-01-13T04:14:56.562Z,38.90
2023-01-13T04:17:25.947Z,33.70
2023-01-13T04:19:55.465Z,40.00
2023-01-13T04:22:25.890Z,29.60
2023-01-13T04:24:55.090Z,26.50
2023-01-13T04:27:24.695Z,29.50
2023-01-13T04:29:54.444Z,29.70
2023-01-13T04:32:24.289Z,30.70
2023-01-13T04:34:54.248Z,27.70
2023-01-13T04:37:23.586Z,29.00
2023-01-13T04:39:53.688Z,30.90
2023-01-13T04:42:22.664Z,32.10
2023-01-13T04:44:51.846Z,33.10
2023-01-13T04:47:21.152Z,38.30
2023-01-13T04:49:51.035Z,36.40
2023-01-13T04:52:20.781Z,40.00
2023-01-13T04:54:49.461Z,39.80
2023-01-13T04:57:18.558Z,44.70
2023-01-13T04:59:47.751Z,42.90
2023-01-13T05:02:20.362Z,38.00
2023-01-13T05:04:49.671Z,38.20
2023-01-13T05:07:18.804Z,38.00
2023-01-13T05:09:47.712Z,49.50
2023-01-13T05:12:35.763Z,39.70
2023-01-13T05:15:23.887Z,45.00
2023-01-13T05:17:53.293Z,45.30
2023-01-13T05:20:22.605Z,39.60
2023-01-13T05:23:10.841Z,44.00
2023-01-13T05:25:44.287Z,37.50
2023-01-13T05:28:14.661Z,31.10
2023-01-13T05:30:46.564Z,35.50
2023-01-13T05:33:18.376Z,32.20
2023-01-13T05:35:48.406Z,34.00
2023-01-13T05:38:18.385Z,36.10
2023-01-13T05:41:05.831Z,39.80
2023-01-13T05:43:35.295Z,31.20
2023-01-13T05:46:08.329Z,34.40
2023-01-13T05:48:39.850Z,30.50
2023-01-13T05:51:11.672Z,38.10
2023-01-13T05:53:41.188Z,35.90
2023-01-13T05:56:11.364Z,35.00
2023-01-13T06:01:09.780Z,38.00
2023-01-13T06:03:39.258Z,33.70
2023-01-13T06:06:09.280Z,50.40
2023-01-13T06:08:39.912Z,44.10
2023-01-13T06:11:08.850Z,42.00
2023-01-13T06:13:39.128Z,35.90
2023-01-13T06:18:36.695Z,36.70
2023-01-13T06:21:05.793Z,39.40
2023-01-13T06:23:38.868Z,34.50
2023-01-13T06:26:18.685Z,40.20
2023-01-13T06:28:47.416Z,42.00
2023-01-13T06:31:16.967Z,50.30
2023-01-13T06:33:51.235Z,49.20
2023-01-13T06:36:25.659Z,57.60
2023-01-13T06:38:59.355Z,59.10
2023-01-13T06:41:49.955Z,45.80
2023-01-13T06:44:20.924Z,41.40
2023-01-13T06:46:49.946Z,40.80
2023-01-13T06:49:21.416Z,40.10
2023-01-13T06:51:50.952Z,39.90
2023-01-13T06:54:19.424Z,44.60
2023-01-13T06:56:48.111Z,41.30
2023-01-13T06:59:17.312Z,44.00
2023-01-13T07:01:46.084Z,45.80
2023-01-13T07:04:14.987Z,47.70
2023-01-13T07:06:44.087Z,44.80
2023-01-13T07:09:13.126Z,41.10
2023-01-13T07:11:53.244Z,46.40
2023-01-13T07:14:43.014Z,38.30
2023-01-13T07:17:11.698Z,40.20
2023-01-13T07:19:40.480Z,42.00
2023-01-13T07:22:09.176Z,43.30
2023-01-13T07:24:39.083Z,46.30
2023-01-13T07:27:07.769Z,42.30
2023-01-13T07:29:38.105Z,50.30
2023-01-13T07:34:36.858Z,44.50
2023-01-13T07:37:05.695Z,41.40
2023-01-13T07:39:34.574Z,41.90
2023-01-13T07:42:21.694Z,41.50
2023-01-13T07:44:50.479Z,39.70
2023-01-13T07:47:23.467Z,38.80
2023-01-13T07:49:52.975Z,48.60
2023-01-13T07:52:21.759Z,43.90
2023-01-13T07:54:50.753Z,47.00
2023-01-13T07:57:19.444Z,46.10
2023-01-13T07:59:48.532Z,51.20
2023-01-13T08:02:19.548Z,47.20
2023-01-13T08:04:48.359Z,52.10
2023-01-13T08:07:16.944Z,52.30
2023-01-13T08:09:46.586Z,55.30
2023-01-13T08:12:33.772Z,61.70
2023-01-13T08:15:04.938Z,47.40
2023-01-13T08:17:33.704Z,47.10
2023-01-13T08:20:03.629Z,49.00
2023-01-13T08:22:33.734Z,39.80
2023-01-13T08:25:02.626Z,49.30
2023-01-13T08:27:31.207Z,45.50
2023-01-13T08:30:00.315Z,42.00
2023-01-13T08:32:29.195Z,44.10
2023-01-13T08:34:57.910Z,37.60
2023-01-13T08:37:26.782Z,42.40
2023-01-13T08:39:55.673Z,37.80
2023-01-13T08:42:27.280Z,39.80
2023-01-13T08:44:58.260Z,34.00
2023-01-13T08:47:29.813Z,28.90
2023-01-13T08:49:58.591Z,32.70
2023-01-13T08:52:27.173Z,33.20
2023-01-13T08:54:56.581Z,35.70
2023-01-13T08:57:25.435Z,30.20
2023-01-13T08:59:54.052Z,34.80
2023-01-13T09:02:24.299Z,30.40
2023-01-13T09:04:53.267Z,23.50
2023-01-13T09:07:22.050Z,25.50
2023-01-13T09:09:51.763Z,31.40
2023-01-13T09:12:38.780Z,29.30
2023-01-13T09:15:14.735Z,25.50
2023-01-13T09:17:43.320Z,28.30
2023-01-13T09:20:13.338Z,28.30
2023-01-13T09:22:42.677Z,31.10
2023-01-13T09:25:12.904Z,27.40
2023-01-13T09:30:10.977Z,33.10
2023-01-13T09:32:39.950Z,28.10
2023-01-13T09:35:09.505Z,29.80
2023-01-13T09:37:41.718Z,27.90
2023-01-13T09:40:17.570Z,28.30
2023-01-13T09:43:16.764Z,30.50
2023-01-13T09:46:01.151Z,26.10
2023-01-13T09:48:52.349Z,37.10
2023-01-13T09:51:31.069Z,31.40
2023-01-13T09:54:11.820Z,26.90
2023-01-13T09:56:40.417Z,27.70
2023-01-13T09:59:15.169Z,25.80
2023-01-13T10:01:53.038Z,24.10
2023-01-13T10:04:21.852Z,28.30
2023-01-13T10:06:56.518Z,28.60
2023-01-13T10:09:47.969Z,25.80
2023-01-13T10:12:44.195Z,26.70
2023-01-13T10:15:23.459Z,26.30
2023-01-13T10:17:58.872Z,26.20
2023-01-13T10:20:52.874Z,27.50
2023-01-13T10:23:27.477Z,24.60
2023-01-13T10:26:01.909Z,28.10
2023-01-13T10:28:30.792Z,23.70
2023-01-13T10:30:59.987Z,27.20
2023-01-13T10:33:28.978Z,62.40
2023-01-13T10:36:01.980Z,81.10
2023-01-13T10:38:38.129Z,25.50
2023-01-13T10:41:20.426Z,25.30
2023-01-13T10:43:54.439Z,59.40
2023-01-13T10:46:23.471Z,41.10
2023-01-13T10:49:24.284Z,28.10
2023-01-13T10:51:53.120Z,23.10
2023-01-13T10:54:24.197Z,20.60
2023-01-13T10:57:20.541Z,26.50
2023-01-13T10:59:49.752Z,18.50
2023-01-13T11:02:26.750Z,18.10
2023-01-13T11:04:55.772Z,17.10
2023-01-13T11:07:38.439Z,17.70
2023-01-13T11:10:17.109Z,18.80
2023-01-13T11:13:04.670Z,16.90
2023-01-13T11:16:08.005Z,19.20
2023-01-13T11:19:02.735Z,17.80
2023-01-13T11:22:07.816Z,17.30
2023-01-13T11:24:50.773Z,21.60
2023-01-13T11:27:42.931Z,20.70
2023-01-13T11:30:17.591Z,20.90
2023-01-13T11:33:10.840Z,16.70
2023-01-13T11:36:05.329Z,19.00
2023-01-13T11:38:43.028Z,19.40
2023-01-13T11:41:46.224Z,18.20
2023-01-13T11:44:27.882Z,16.60
2023-01-13T11:46:56.875Z,20.00
2023-01-13T11:49:31.084Z,18.90
2023-01-13T11:52:43.044Z,15.40
2023-01-13T11:55:49.699Z,20.50
2023-01-13T11:58:38.782Z,16.70
2023-01-13T12:01:45.179Z,17.10
2023-01-13T12:04:25.794Z,16.60
2023-01-13T12:07:23.356Z,17.30
2023-01-13T12:10:15.282Z,17.70
2023-01-13T12:13:03.935Z,17.10
2023-01-13T12:16:01.301Z,19.80
2023-01-13T12:18:34.799Z,16.30
2023-01-13T12:21:04.199Z,15.30
2023-01-13T12:23:44.916Z,16.50
2023-01-13T12:26:18.955Z,13.90
2023-01-13T12:28:50.473Z,14.80
2023-01-13T12:31:20.986Z,14.20
2023-01-13T12:34:22.109Z,16.50
2023-01-13T12:37:08.911Z,14.80
2023-01-13T12:39:43.541Z,15.50
2023-01-13T12:43:06.597Z,14.20
2023-01-13T12:45:35.438Z,14.30
2023-01-13T12:48:06.370Z,14.70
2023-01-13T12:50:41.152Z,14.80
2023-01-13T12:53:34.745Z,12.90
2023-01-13T12:56:24.910Z,13.10
2023-01-13T12:59:13.570Z,16.60
2023-01-13T13:01:43.121Z,17.20
2023-01-13T13:04:20.180Z,14.60
2023-01-13T13:07:14.449Z,12.50
2023-01-13T13:09:54.806Z,14.00
2023-01-13T13:13:09.460Z,13.80
2023-01-13T13:15:39.167Z,16.00
2023-01-13T13:18:24.234Z,11.20
2023-01-13T13:21:18.940Z,13.40
2023-01-13T13:23:53.677Z,11.70
2023-01-13T13:26:38.419Z,12.10
2023-01-13T13:29:51.760Z,11.70
2023-01-13T13:33:15.341Z,11.10
2023-01-13T13:36:04.292Z,9.90
2023-01-13T13:39:12.089Z,11.30
2023-01-13T13:42:06.071Z,10.20
2023-01-13T13:45:04.861Z,9.90
2023-01-13T13:47:38.773Z,10.30
2023-01-13T13:50:20.385Z,9.50
2023-01-13T13:52:59.701Z,11.50
2023-01-13T13:55:30.227Z,11.10
2023-01-13T13:57:59.730Z,11.50
2023-01-13T14:00:35.178Z,11.70
2023-01-13T14:03:07.448Z,12.20
2023-01-13T14:05:37.781Z,11.50
2023-01-13T14:08:17.270Z,15.00
2023-01-13T14:10:46.837Z,20.30
2023-01-13T14:13:32.254Z,17.00
2023-01-13T14:16:02.829Z,17.10
2023-01-13T14:18:45.383Z,19.60
2023-01-13T14:21:19.695Z,18.70
2023-01-13T14:23:54.686Z,16.60
2023-01-13T14:26:28.891Z,18.60
2023-01-13T14:28:59.934Z,21.00
2023-01-13T14:31:29.720Z,20.40
2023-01-13T14:34:03.185Z,22.20
2023-01-13T14:36:51.931Z,20.00
2023-01-13T14:39:27.374Z,21.80
2023-01-13T14:41:56.369Z,22.30
2023-01-13T14:44:29.562Z,23.60
2023-01-13T14:47:02.019Z,28.70
2023-01-13T14:49:59.289Z,31.80
2023-01-13T14:52:30.532Z,24.60
2023-01-13T14:55:10.787Z,25.70
2023-01-13T14:57:41.818Z,20.70
2023-01-13T15:00:16.988Z,20.00
2023-01-13T15:02:48.049Z,18.90
2023-01-13T15:05:19.675Z,23.20
2023-01-13T15:08:14.244Z,20.30
2023-01-13T15:11:00.218Z,20.50
2023-01-13T15:13:44.795Z,21.60
2023-01-13T15:16:25.913Z,17.60
2023-01-13T15:18:56.324Z,21.20
2023-01-13T15:21:25.600Z,21.90
2023-01-13T15:23:54.084Z,25.50
2023-01-13T15:26:28.942Z,23.30
2023-01-13T15:28:59.337Z,30.70
2023-01-13T15:31:28.664Z,40.70
2023-01-13T15:34:00.595Z,47.90
2023-01-13T15:36:31.375Z,55.70
2023-01-13T15:39:01.556Z,44.80
2023-01-13T15:41:49.076Z,42.40
2023-01-13T15:44:36.601Z,40.70
2023-01-13T15:47:08.255Z,36.40
2023-01-13T15:49:43.499Z,35.00
2023-01-13T15:52:18.226Z,40.50
2023-01-13T15:54:46.817Z,44.90
2023-01-13T15:57:36.277Z,42.20
2023-01-13T16:00:16.914Z,45.50
2023-01-13T16:02:45.655Z,55.90
2023-01-13T16:05:14.536Z,49.10
2023-01-13T16:07:43.314Z,53.40
2023-01-13T16:10:22.140Z,55.60
2023-01-13T16:12:50.723Z,57.60
2023-01-13T16:15:23.192Z,49.60
2023-01-13T16:17:57.634Z,55.30
2023-01-13T16:20:27.345Z,57.30
2023-01-13T16:22:55.819Z,47.30
2023-01-13T16:25:27.290Z,46.70
2023-01-13T16:27:55.871Z,51.00
2023-01-13T16:30:26.291Z,45.60
2023-01-13T16:32:55.497Z,46.20
2023-01-13T16:35:25.059Z,45.20
2023-01-13T16:37:54.312Z,42.00
2023-01-13T16:40:31.220Z,42.70
2023-01-13T16:43:03.378Z,46.50
2023-01-13T16:45:32.654Z,40.00
2023-01-13T16:48:01.581Z,37.40
2023-01-13T16:50:41.129Z,46.20
2023-01-13T16:53:10.826Z,44.10
2023-01-13T16:55:40.738Z,42.80
2023-01-13T16:58:18.233Z,41.40
2023-01-13T17:00:48.125Z,41.50
2023-01-13T17:03:17.093Z,40.20
2023-01-13T17:05:50.122Z,40.10
2023-01-13T17:08:19.328Z,38.70
2023-01-13T17:10:48.318Z,40.90
2023-01-13T17:13:17.471Z,35.30
2023-01-13T17:15:46.403Z,68.60
2023-01-13T17:18:15.016Z,70.70
2023-01-13T17:20:43.786Z,67.30
2023-01-13T17:23:12.258Z,70.30
2023-01-13T17:25:41.149Z,55.60
2023-01-13T17:28:09.626Z,57.90
2023-01-13T17:30:38.316Z,58.20
2023-01-13T17:33:06.896Z,55.50
2023-01-13T17:35:35.685Z,47.50
2023-01-13T17:38:04.180Z,39.50
2023-01-13T17:40:34.794Z,34.30
2023-01-13T17:43:03.500Z,40.50
2023-01-13T17:45:31.980Z,34.70
2023-01-13T17:48:00.651Z,35.90
2023-01-13T17:50:30.980Z,47.90
2023-01-13T17:52:59.452Z,36.40
2023-01-13T17:55:27.928Z,34.50
2023-01-13T17:57:56.514Z,36.70
2023-01-13T18:00:25.709Z,41.30
2023-01-13T18:02:54.843Z,36.50
2023-01-13T18:05:23.484Z,53.30
2023-01-13T18:07:52.273Z,47.30
2023-01-13T18:10:20.754Z,48.60
2023-01-13T18:12:49.236Z,59.50
2023-01-13T18:15:17.919Z,59.30
2023-01-13T18:17:47.334Z,56.00
2023-01-13T18:20:35.982Z,77.70
2023-01-13T18:23:23.299Z,55.40
2023-01-13T18:26:10.625Z,46.30
2023-01-13T18:28:39.203Z,46.90
2023-01-13T18:31:09.572Z,42.80
2023-01-13T18:33:38.125Z,46.10
2023-01-13T18:36:08.348Z,47.20
2023-01-13T18:38:37.015Z,47.80
2023-01-13T18:41:25.975Z,57.70
2023-01-13T18:43:54.763Z,86.70
2023-01-13T18:46:23.664Z,74.70
2023-01-13T18:48:52.339Z,71.70
2023-01-13T18:51:21.021Z,69.30
2023-01-13T18:53:51.510Z,71.10
2023-01-13T18:56:20.445Z,61.10
2023-01-13T18:58:53.536Z,76.40
2023-01-13T19:01:27.850Z,64.50
2023-01-13T19:04:03.053Z,61.30
2023-01-13T19:06:33.768Z,59.40
2023-01-13T19:09:08.752Z,55.20
2023-01-13T19:11:37.446Z,54.90
2023-01-13T19:14:05.921Z,44.40
2023-01-13T19:16:34.911Z,51.30
2023-01-13T19:19:03.623Z,79.70
2023-01-13T19:21:32.186Z,121.00
2023-01-13T19:24:00.664Z,62.40
2023-01-13T19:26:29.245Z,53.60
2023-01-13T19:28:57.728Z,62.40
2023-01-13T19:31:26.327Z,70.90
2023-01-13T19:33:55.037Z,79.40
2023-01-13T19:36:23.581Z,105.10
2023-01-13T19:38:52.162Z,132.00
2023-01-13T19:41:39.382Z,111.40
2023-01-13T19:44:30.287Z,99.70
2023-01-13T19:46:58.975Z,80.40
2023-01-13T19:49:27.664Z,72.70
2023-01-13T19:51:56.248Z,67.30
2023-01-13T19:54:24.836Z,79.10
2023-01-13T19:56:53.636Z,57.60
2023-01-13T19:59:29.295Z,67.60
2023-01-13T20:01:58.754Z,51.60
2023-01-13T20:04:38.620Z,55.30
2023-01-13T20:07:08.329Z,70.00
2023-01-13T20:09:36.823Z,59.40
2023-01-13T20:12:24.129Z,52.00
2023-01-13T20:14:53.225Z,59.60
2023-01-13T20:17:22.734Z,53.90
2023-01-13T20:19:51.414Z,51.30
2023-01-13T20:22:19.997Z,50.00
2023-01-13T20:24:52.471Z,43.30
2023-01-13T20:27:23.976Z,42.00
2023-01-13T20:29:52.506Z,50.70
2023-01-13T20:32:21.395Z,100.70
2023-01-13T20:34:50.388Z,59.90
2023-01-13T20:37:20.821Z,84.90
2023-01-13T20:39:49.623Z,58.90
2023-01-13T20:42:30.386Z,135.50
2023-01-13T20:45:00.710Z,61.70
2023-01-13T20:47:30.406Z,72.60
2023-01-13T20:49:59.607Z,69.40
2023-01-13T20:52:28.802Z,63.60
2023-01-13T20:54:57.288Z,61.00
2023-01-13T20:57:25.974Z,55.10
2023-01-13T20:59:54.553Z,68.70
2023-01-13T21:02:24.669Z,63.20
2023-01-13T21:04:53.258Z,68.30
2023-01-13T21:07:22.173Z,62.00
2023-01-13T21:09:50.729Z,55.40
2023-01-13T21:12:37.945Z,67.20
2023-01-13T21:15:17.484Z,45.90
2023-01-13T21:18:06.547Z,43.50
2023-01-13T21:20:37.285Z,147.10
2023-01-13T21:23:06.397Z,96.90
2023-01-13T21:25:37.415Z,98.70
2023-01-13T21:28:06.632Z,93.10
2023-01-13T21:30:35.716Z,146.70
2023-01-13T21:33:06.544Z,193.30
2023-01-13T21:35:39.038Z,91.00
2023-01-13T21:38:07.601Z,122.10
2023-01-13T21:40:36.296Z,95.00
2023-01-13T21:43:23.409Z,77.20
2023-01-13T21:46:10.895Z,88.80
2023-01-13T21:48:39.624Z,108.40
2023-01-13T21:51:08.209Z,83.10
2023-01-13T21:53:36.790Z,54.00
2023-01-13T21:56:06.089Z,65.50
2023-01-13T21:58:34.677Z,63.30
2023-01-13T22:01:04.165Z,141.50
2023-01-13T22:03:51.497Z,338.50
2023-01-13T22:06:20.158Z,73.70
2023-01-13T22:08:48.973Z,94.00
2023-01-13T22:11:17.860Z,75.30
2023-01-13T22:14:05.295Z,109.90
2023-01-13T22:16:49.296Z,112.40
2023-01-13T22:19:19.045Z,113.70
2023-01-13T22:21:49.270Z,96.20
2023-01-13T22:26:46.635Z,96.60
2023-01-13T22:29:15.690Z,79.90
2023-01-13T22:31:44.352Z,140.30
2023-01-13T22:34:13.308Z,156.90
2023-01-13T22:36:41.783Z,87.50
2023-01-13T22:39:10.377Z,78.00
2023-01-13T22:41:39.261Z,75.00
2023-01-13T22:44:07.951Z,76.20
2023-01-13T22:46:36.638Z,67.60
2023-01-13T22:49:05.628Z,70.50
2023-01-13T22:51:34.317Z,56.40
2023-01-13T22:54:03.432Z,60.30
2023-01-13T22:56:32.607Z,83.90
2023-01-13T22:59:03.753Z,77.40
2023-01-13T23:01:34.800Z,57.50
2023-01-13T23:04:04.487Z,63.30
2023-01-13T23:06:34.526Z,63.70
2023-01-13T23:09:03.307Z,73.70
2023-01-13T23:11:32.498Z,60.40
2023-01-13T23:14:06.808Z,55.50
2023-01-13T23:16:38.609Z,65.90
2023-01-13T23:19:08.713Z,61.30
2023-01-13T23:21:38.867Z,49.60
2023-01-13T23:24:08.313Z,57.90
2023-01-13T23:26:37.797Z,56.70
2023-01-13T23:29:13.404Z,70.40
2023-01-13T23:31:42.372Z,69.00
2023-01-13T23:34:11.457Z,57.60
2023-01-13T23:36:42.187Z,82.80
2023-01-13T23:39:10.917Z,80.40
2023-01-13T23:41:39.871Z,74.10
2023-01-13T23:44:09.694Z,82.40
2023-01-13T23:46:38.580Z,67.30
2023-01-13T23:49:07.886Z,61.50
2023-01-13T23:51:36.871Z,52.90
2023-01-13T23:54:05.967Z,88.20
2023-01-13T23:56:39.614Z,64.50
2023-01-13T23:59:09.280Z,58.90
